Time;durP1;ratioP1;P1;durP2;ratioP2;P2;SDS_P1;SDS_P2;PMS_P1;PMS_P2;Temp;Humidity;BMP_temperature;BMP_pressure;BME280_temperature;BME280_humidity;BME280_pressure;Samples;Min_cycle;Max_cycle;Signal;HPM_P1;HPM_P2
2022/10/04 00:00:45;;;;;;;;;;;;;;;19.27;53.97;102302.81;5008835;28;19971;-59
2022/10/04 00:03:17;;;;;;;;;;;;;;;19.27;53.70;102306.38;5026806;28;19909;-60
2022/10/04 00:05:42;;;;;;;;;;;;;;;19.27;53.87;102300.13;5005633;28;19925;-60
2022/10/04 00:08:20;;;;;;;;;;;;;;;19.25;53.83;102297.59;5006622;28;19969;-60
2022/10/04 00:10:45;;;;;;;;;;;;;;;19.27;53.77;102302.81;5005788;28;19920;-60
2022/10/04 00:13:15;;;;;;;;;;;;;;;19.25;53.70;102288.66;5011963;28;19909;-60
2022/10/04 00:15:40;;;;;;;;;;;;;;;19.24;53.96;102293.16;5025304;28;19909;-60
2022/10/04 00:18:17;;;;;;;;;;;;;;;19.23;53.92;102288.75;5006000;28;19941;-59
2022/10/04 00:20:46;;;;;;;;;;;;;;;19.23;53.71;102277.97;5018579;28;19940;-60
2022/10/04 00:23:20;;;;;;;;;;;;;;;19.25;53.57;102285.94;5026176;28;20321;-59
2022/10/04 00:25:45;;;;;;;;;;;;;;;19.22;53.83;102285.22;5026324;28;19916;-59
2022/10/04 00:28:15;;;;;;;;;;;;;;;19.23;53.90;102283.38;5026072;28;19913;-59
2022/10/04 00:30:41;;;;;;;;;;;;;;;19.21;53.74;102275.44;5028696;28;19909;-60
2022/10/04 00:33:06;;;;;;;;;;;;;;;19.21;53.86;102278.13;5030987;28;19955;-59
2022/10/04 00:35:32;;;;;;;;;;;;;;;19.20;53.65;102268.34;5029734;28;19913;-59
2022/10/04 00:38:00;;;;;;;;;;;;;;;19.21;53.79;102269.19;5030631;28;19921;-60
2022/10/04 00:40:30;;;;;;;;;;;;;;;19.20;53.80;102268.34;5012407;28;19909;-59
2022/10/04 00:43:07;;;;;;;;;;;;;;;19.20;53.85;102276.44;5013137;28;19961;-60
2022/10/04 00:45:33;;;;;;;;;;;;;;;19.19;53.86;102268.47;5013376;28;19944;-60
2022/10/04 00:48:01;;;;;;;;;;;;;;;19.18;53.72;102275.69;5012865;28;19920;-59
2022/10/04 00:50:29;;;;;;;;;;;;;;;19.19;53.55;102263.06;5029246;28;19913;-60
2022/10/04 00:52:55;;;;;;;;;;;;;;;19.18;53.86;102259.53;5012703;28;19909;-59
2022/10/04 00:55:38;;;;;;;;;;;;;;;19.17;53.52;102238.94;5030101;28;19911;-60
2022/10/04 00:58:04;;;;;;;;;;;;;;;19.17;53.73;102221.91;5012345;28;20283;-59
2022/10/04 01:00:32;;;;;;;;;;;;;;;19.16;53.67;102229.16;5003798;28;19910;-58
2022/10/04 01:03:07;;;;;;;;;;;;;;;19.17;53.80;102220.06;5012106;28;19917;-59
2022/10/04 01:05:37;;;;;;;;;;;;;;;19.16;53.68;102228.31;5010974;28;19959;-59
2022/10/04 01:08:05;;;;;;;;;;;;;;;19.16;53.44;102234.56;5044494;28;20586;-59
2022/10/04 01:10:32;;;;;;;;;;;;;;;19.16;53.74;102233.72;5028518;28;19909;-59
2022/10/04 01:13:06;;;;;;;;;;;;;;;19.15;53.57;102230.13;5044179;28;20440;-59
2022/10/04 01:15:44;;;;;;;;;;;;;;;19.15;53.57;102219.34;5027315;28;19937;-59
2022/10/04 01:18:18;;;;;;;;;;;;;;;19.14;53.78;102228.44;5025279;28;19909;-59
2022/10/04 01:20:49;;;;;;;;;;;;;;;19.14;53.76;102228.44;5021169;28;19941;-60
2022/10/04 01:23:33;;;;;;;;;;;;;;;19.14;53.71;102225.72;5029656;28;19909;-60
2022/10/04 01:25:58;;;;;;;;;;;;;;;19.13;53.50;102223.19;5029464;28;19916;-60
2022/10/04 01:28:25;;;;;;;;;;;;;;;19.13;53.53;102224.03;5029256;28;19917;-59
2022/10/04 01:30:50;;;;;;;;;;;;;;;19.13;53.41;102226.72;5029167;28;19909;-59
2022/10/04 01:33:15;;;;;;;;;;;;;;;19.12;53.64;102222.34;5029677;28;19952;-59
2022/10/04 01:35:40;;;;;;;;;;;;;;;19.11;53.48;102220.63;5029109;28;19910;-59
2022/10/04 01:38:06;;;;;;;;;;;;;;;19.12;53.51;102218.78;5029373;28;19918;-60
2022/10/04 01:40:31;;;;;;;;;;;;;;;19.12;53.70;102210.72;5010878;28;20281;-59
2022/10/04 01:42:59;;;;;;;;;;;;;;;19.12;53.58;102210.72;5028575;28;19944;-59
2022/10/04 01:45:27;;;;;;;;;;;;;;;19.11;53.59;102206.28;5011005;28;19913;-59
2022/10/04 01:47:57;;;;;;;;;;;;;;;19.11;53.80;102195.50;5029037;28;19917;-59
2022/10/04 01:50:39;;;;;;;;;;;;;;;19.10;53.52;102200.03;5010952;28;19977;-59
2022/10/04 01:53:19;;;;;;;;;;;;;;;18.84;53.26;102150.34;5011362;28;19914;-59
2022/10/04 01:55:47;;;;;;;;;;;;;;;19.10;53.54;102193.81;5028789;28;19914;-59
2022/10/04 01:58:15;;;;;;;;;;;;;;;19.10;53.73;102191.97;5011253;28;20130;-59
2022/10/04 02:00:42;;;;;;;;;;;;;;;19.09;53.74;102182.16;5028416;28;20459;-59
2022/10/04 02:03:09;;;;;;;;;;;;;;;19.09;53.60;102178.63;5011385;28;19910;-60
2022/10/04 02:05:36;;;;;;;;;;;;;;;19.09;53.62;102173.22;5027930;28;20386;-60
2022/10/04 02:08:05;;;;;;;;;;;;;;;19.08;53.44;102172.38;4995165;28;19961;-59
2022/10/04 02:10:32;;;;;;;;;;;;;;;19.07;53.64;102170.66;5028436;28;19933;-59
2022/10/04 02:12:57;;;;;;;;;;;;;;;19.07;53.55;102159.88;5010977;28;19909;-59
2022/10/04 02:15:27;;;;;;;;;;;;;;;19.07;53.29;102164.41;5025311;28;19942;-59
2022/10/04 02:17:52;;;;;;;;;;;;;;;19.07;53.53;102173.34;5021529;28;19913;-60
2022/10/04 02:20:19;;;;;;;;;;;;;;;19.06;53.28;102174.34;5007714;28;19925;-60
2022/10/04 02:22:44;;;;;;;;;;;;;;;19.06;53.45;102173.50;5010646;28;19937;-60
2022/10/04 02:25:10;;;;;;;;;;;;;;;19.06;53.51;102173.50;5010802;28;19909;-59
2022/10/04 02:27:35;;;;;;;;;;;;;;;19.06;53.61;102170.81;5028325;28;20044;-59
2022/10/04 02:30:01;;;;;;;;;;;;;;;19.06;53.54;102170.81;5028401;28;19909;-60
2022/10/04 02:35:12;;;;;;;;;;;;;;;19.04;53.58;102145.84;5027907;28;20389;-60
2022/10/04 02:37:38;;;;;;;;;;;;;;;19.03;53.48;102136.03;5010500;28;19984;-59
2022/10/04 02:40:04;;;;;;;;;;;;;;;19.03;53.57;102134.22;5028164;28;19957;-60
2022/10/04 02:42:36;;;;;;;;;;;;;;;19.03;53.51;102133.34;5010847;28;19916;-60
2022/10/04 02:45:16;;;;;;;;;;;;;;;19.02;53.35;102127.09;5028045;28;19909;-60
2022/10/04 02:47:46;;;;;;;;;;;;;;;19.02;53.43;102129.78;5010447;28;19917;-60
2022/10/04 02:50:23;;;;;;;;;;;;;;;19.01;53.29;102133.50;5027032;28;19917;-59
2022/10/04 02:52:50;;;;;;;;;;;;;;;19.01;53.40;102130.78;4993692;28;20003;-59
2022/10/04 02:55:22;;;;;;;;;;;;;;;19.00;53.60;102131.78;5010398;28;19939;-59
2022/10/04 02:57:48;;;;;;;;;;;;;;;19.00;53.54;102125.56;5010019;28;19935;-59
2022/10/04 03:00:18;;;;;;;;;;;;;;;19.00;53.36;102125.56;5026788;28;19960;-59
2022/10/04 03:03:03;;;;;;;;;;;;;;;18.98;53.13;102126.53;5007886;28;19909;-59
2022/10/04 03:05:29;;;;;;;;;;;;;;;18.98;53.30;102122.97;5024514;28;19976;-59
2022/10/04 03:07:55;;;;;;;;;;;;;;;18.98;53.23;102131.06;5025759;28;20288;-59
2022/10/04 03:10:20;;;;;;;;;;;;;;;18.98;53.37;102131.06;5025007;28;19993;-59
2022/10/04 03:12:48;;;;;;;;;;;;;;;18.97;53.24;102121.28;5025225;28;19921;-58
2022/10/04 03:15:13;;;;;;;;;;;;;;;18.96;53.23;102119.59;5020715;28;19913;-58
2022/10/04 03:17:39;;;;;;;;;;;;;;;18.95;53.34;102110.66;5025623;28;19932;-59
2022/10/04 03:20:04;;;;;;;;;;;;;;;18.95;53.31;102107.97;5024494;28;19913;-59
2022/10/04 03:22:30;;;;;;;;;;;;;;;18.95;53.30;102102.56;5024941;28;20012;-58
2022/10/04 03:24:55;;;;;;;;;;;;;;;18.95;53.22;102097.19;5007485;28;19910;-58
2022/10/04 03:27:21;;;;;;;;;;;;;;;18.94;53.32;102086.53;5007431;28;20292;-59
2022/10/04 03:29:49;;;;;;;;;;;;;;;18.93;53.05;102085.66;5007394;28;19909;-59
2022/10/04 03:32:14;;;;;;;;;;;;;;;18.94;53.49;102086.53;5007703;28;20507;-59
2022/10/04 03:34:40;;;;;;;;;;;;;;;18.93;53.17;102085.66;5024453;28;20607;-57
2022/10/04 03:37:06;;;;;;;;;;;;;;;18.93;53.38;102079.44;5003719;28;19929;-60
2022/10/04 03:39:32;;;;;;;;;;;;;;;18.93;53.33;102079.44;5005816;28;19920;-59
2022/10/04 03:41:58;;;;;;;;;;;;;;;18.92;53.48;102088.53;5007179;28;19910;-59
2022/10/04 03:44:23;;;;;;;;;;;;;;;18.91;53.15;102090.38;5007145;28;19955;-59
2022/10/04 03:46:49;;;;;;;;;;;;;;;18.90;53.43;102080.59;4990900;28;19955;-59
2022/10/04 03:49:16;;;;;;;;;;;;;;;18.90;53.40;102080.59;5024502;28;20463;-59
2022/10/04 03:51:43;;;;;;;;;;;;;;;18.90;53.15;102077.00;5006034;28;20373;-59
2022/10/04 03:54:08;;;;;;;;;;;;;;;18.90;53.28;102079.72;5024693;28;19932;-59
2022/10/04 03:56:34;;;;;;;;;;;;;;;18.88;53.27;102070.94;5024306;28;19909;-59
2022/10/04 03:59:01;;;;;;;;;;;;;;;18.89;53.27;102072.63;5006696;28;19964;-58
2022/10/04 04:01:26;;;;;;;;;;;;;;;18.88;53.30;102062.84;5024054;28;19916;-59
2022/10/04 04:03:59;;;;;;;;;;;;;;;18.88;53.15;102066.38;5024419;28;20317;-58
2022/10/04 04:06:25;;;;;;;;;;;;;;;18.87;53.33;102063.84;5023065;28;19913;-59
2022/10/04 04:08:51;;;;;;;;;;;;;;;18.87;53.15;102070.06;5006594;28;19940;-59
2022/10/04 04:11:23;;;;;;;;;;;;;;;18.87;53.09;102075.47;5006324;28;19966;-59
2022/10/04 04:13:57;;;;;;;;;;;;;;;18.86;53.24;102068.38;4994095;28;19917;-59
2022/10/04 04:16:25;;;;;;;;;;;;;;;18.86;53.16;102084.56;4985266;28;19949;-60
2022/10/04 04:18:50;;;;;;;;;;;;;;;18.85;53.33;102069.34;4984228;28;19952;-59
2022/10/04 04:21:17;;;;;;;;;;;;;;;18.85;53.45;102072.03;4986598;28;19910;-59
2022/10/04 04:23:43;;;;;;;;;;;;;;;18.84;53.16;102070.34;5006466;28;19985;-59
2022/10/04 04:26:26;;;;;;;;;;;;;;;18.84;53.06;102069.50;5023952;28;20446;-59
2022/10/04 04:28:54;;;;;;;;;;;;;;;18.83;53.14;102065.09;5006099;28;20302;-60
2022/10/04 04:31:20;;;;;;;;;;;;;;;18.83;53.11;102063.25;5015203;28;19940;-59
2022/10/04 04:33:56;;;;;;;;;;;;;;;18.82;53.31;102050.78;5024095;28;19913;-59
2022/10/04 04:36:21;;;;;;;;;;;;;;;18.82;53.25;102049.91;5023696;28;19909;-59
2022/10/04 04:41:39;;;;;;;;;;;;;;;18.82;53.29;102056.19;4989299;28;19968;-60
2022/10/04 04:44:09;;;;;;;;;;;;;;;18.81;53.22;102045.53;5006272;28;19913;-60
2022/10/04 04:46:34;;;;;;;;;;;;;;;18.81;53.45;102048.22;5005837;28;19909;-60
2022/10/04 04:49:01;;;;;;;;;;;;;;;18.81;53.46;102048.22;5005614;28;19925;-60
2022/10/04 04:51:26;;;;;;;;;;;;;;;18.80;53.15;102050.06;5022651;28;19909;-58
2022/10/04 04:53:51;;;;;;;;;;;;;;;18.79;53.34;102042.97;5005757;28;20277;-60
2022/10/04 04:56:18;;;;;;;;;;;;;;;18.79;53.25;102029.50;5023309;28;20616;-59
2022/10/04 04:58:45;;;;;;;;;;;;;;;18.80;53.47;102041.13;5023554;28;19971;-60
2022/10/04 05:01:18;;;;;;;;;;;;;;;18.80;53.67;102043.81;5023032;28;19928;-60
2022/10/04 05:03:43;;;;;;;;;;;;;;;18.80;53.48;102054.59;5005366;28;19913;-60
2022/10/04 05:06:23;;;;;;;;;;;;;;;18.78;53.66;102049.38;5021556;28;19952;-60
2022/10/04 05:08:49;;;;;;;;;;;;;;;18.79;53.68;102052.91;5008052;28;19921;-60
2022/10/04 05:11:17;;;;;;;;;;;;;;;18.78;53.48;102054.75;5019900;28;19916;-59
2022/10/04 05:13:44;;;;;;;;;;;;;;;18.79;53.61;102056.44;5005166;28;19921;-60
2022/10/04 05:16:11;;;;;;;;;;;;;;;18.78;53.46;102052.06;5024442;28;19914;-59
2022/10/04 05:18:36;;;;;;;;;;;;;;;18.77;53.52;102041.41;5026450;28;19916;-60
2022/10/04 05:21:06;;;;;;;;;;;;;;;18.78;53.67;102037.75;5008420;28;20019;-60
2022/10/04 05:23:32;;;;;;;;;;;;;;;18.77;53.78;102039.56;5026184;28;19916;-60
2022/10/04 05:25:59;;;;;;;;;;;;;;;18.78;53.79;102041.28;5009085;28;19924;-60
2022/10/04 05:28:24;;;;;;;;;;;;;;;18.77;53.94;102053.03;5026198;28;19917;-60
2022/10/04 05:30:53;;;;;;;;;;;;;;;18.77;53.45;102050.34;5026482;28;19963;-60
2022/10/04 05:33:23;;;;;;;;;;;;;;;18.77;54.04;102044.09;5026217;28;19936;-59
2022/10/04 05:35:54;;;;;;;;;;;;;;;18.77;53.94;102041.41;5007825;28;19966;-60
2022/10/04 05:38:23;;;;;;;;;;;;;;;18.77;53.75;102044.94;5025892;28;20532;-59
2022/10/04 05:41:02;;;;;;;;;;;;;;;18.78;53.91;102048.53;5026237;28;19913;-59
2022/10/04 05:43:37;;;;;;;;;;;;;;;18.76;53.97;102045.94;5024546;28;19913;-60
2022/10/04 05:46:20;;;;;;;;;;;;;;;18.76;54.04;102043.25;5024004;28;19916;-59
2022/10/04 05:48:46;;;;;;;;;;;;;;;18.76;53.95;102040.56;5006655;28;19913;-59
2022/10/04 05:51:18;;;;;;;;;;;;;;;18.76;53.82;102051.34;5025757;28;19916;-57
2022/10/04 05:53:45;;;;;;;;;;;;;;;18.75;53.98;102044.25;5006437;28;19914;-58
2022/10/04 05:56:28;;;;;;;;;;;;;;;18.75;53.84;102051.47;5026145;28;19909;-59
2022/10/04 05:58:58;;;;;;;;;;;;;;;18.74;53.78;102050.63;5024900;28;19932;-59
2022/10/04 06:01:40;;;;;;;;;;;;;;;18.75;53.96;102055.03;5006359;28;19914;-55
2022/10/04 06:04:23;;;;;;;;;;;;;;;18.75;54.08;102051.47;5018294;28;19909;-57
2022/10/04 06:06:49;;;;;;;;;;;;;;;18.75;54.09;102054.19;5025583;28;19909;-59
2022/10/04 06:09:35;;;;;;;;;;;;;;;18.75;54.17;102057.72;5011995;28;19913;-60
2022/10/04 06:12:04;;;;;;;;;;;;;;;18.75;54.39;102055.03;5016886;28;19914;-57
2022/10/04 06:14:48;;;;;;;;;;;;;;;18.75;54.08;102057.72;5024099;28;20711;-56
2022/10/04 06:17:28;;;;;;;;;;;;;;;18.75;54.23;102051.47;5025830;28;19920;-57
2022/10/04 06:20:12;;;;;;;;;;;;;;;18.77;54.41;102057.56;5024721;28;19909;-57
2022/10/04 06:22:44;;;;;;;;;;;;;;;18.76;54.27;102054.03;5025559;28;19931;-58
2022/10/04 06:25:12;;;;;;;;;;;;;;;18.77;54.49;102044.09;5027308;28;19914;-56
2022/10/04 06:27:45;;;;;;;;;;;;;;;18.78;54.33;102043.97;5025047;28;19916;-55
2022/10/04 06:30:14;;;;;;;;;;;;;;;18.78;54.26;102045.81;5012864;28;19909;-59
2022/10/04 06:32:58;;;;;;;;;;;;;;;18.78;54.42;102052.06;5014958;28;19933;-57
2022/10/04 06:35:41;;;;;;;;;;;;;;;18.80;54.15;102049.22;5024182;28;20020;-55
2022/10/04 06:38:07;;;;;;;;;;;;;;;18.80;54.38;102046.53;5006172;28;19969;-60
2022/10/04 06:40:53;;;;;;;;;;;;;;;18.81;54.37;102042.81;5024498;28;20369;-56
2022/10/04 06:43:19;;;;;;;;;;;;;;;18.81;54.13;102049.06;5022344;28;20027;-57
2022/10/04 06:45:47;;;;;;;;;;;;;;;18.82;53.98;102047.22;5022846;28;19909;-58
2022/10/04 06:48:24;;;;;;;;;;;;;;;18.83;54.23;102043.56;5016178;28;19913;-57
2022/10/04 06:50:55;;;;;;;;;;;;;;;18.85;54.16;102044.25;5018606;28;19913;-56
2022/10/04 06:53:26;;;;;;;;;;;;;;;18.85;53.96;102045.09;5008844;28;19936;-56
2022/10/04 06:56:01;;;;;;;;;;;;;;;18.86;54.04;102044.13;5011392;28;19964;-57
2022/10/04 06:58:45;;;;;;;;;;;;;;;18.86;53.89;102038.75;5024941;28;19909;-56
2022/10/04 07:01:17;;;;;;;;;;;;;;;18.87;54.02;102034.19;5006488;28;19910;-56
2022/10/04 07:04:02;;;;;;;;;;;;;;;18.87;53.80;102037.75;5020011;28;19920;-58
2022/10/04 07:06:33;;;;;;;;;;;;;;;18.88;53.69;102030.50;5005631;28;19984;-59
2022/10/04 07:09:01;;;;;;;;;;;;;;;18.88;53.82;102033.19;5024762;28;19913;-58
2022/10/04 07:11:29;;;;;;;;;;;;;;;18.87;53.81;102032.34;5022305;28;19981;-58
2022/10/04 07:14:27;;;;;;;;;;;;;;;18.88;53.47;102030.50;5009460;28;19913;-53
2022/10/04 07:16:55;;;;;;;;;;;;;;;18.89;53.69;102026.81;4973435;28;19932;-58
2022/10/04 07:19:28;;;;;;;;;;;;;;;18.89;53.62;102032.19;4996823;28;19921;-55
2022/10/04 07:21:53;;;;;;;;;;;;;;;18.88;53.56;102025.97;5004232;28;19917;-57
2022/10/04 07:24:20;;;;;;;;;;;;;;;18.88;53.70;102028.66;5022303;28;20024;-51
2022/10/04 07:26:46;;;;;;;;;;;;;;;18.88;53.41;102017.88;5009807;28;19909;-54
2022/10/04 07:29:19;;;;;;;;;;;;;;;18.89;53.76;102021.41;5001357;28;19924;-55
2022/10/04 07:31:45;;;;;;;;;;;;;;;18.89;53.72;102008.78;5001006;28;19913;-55
2022/10/04 07:34:14;;;;;;;;;;;;;;;18.90;53.86;102015.91;5006444;28;19936;-56
2022/10/04 07:36:47;;;;;;;;;;;;;;;18.92;53.57;102018.44;4999864;28;19989;-58
2022/10/04 07:39:24;;;;;;;;;;;;;;;18.95;53.64;102020.88;5005720;28;19964;-57
2022/10/04 07:41:51;;;;;;;;;;;;;;;18.97;53.31;102017.03;5005716;28;19913;-57
2022/10/04 07:44:35;;;;;;;;;;;;;;;19.00;53.46;102025.84;5024349;28;19959;-57
2022/10/04 07:47:03;;;;;;;;;;;;;;;19.01;53.26;102030.22;5024255;28;20358;-58
2022/10/04 07:49:34;;;;;;;;;;;;;;;19.02;53.19;102029.22;5023979;28;20020;-58
2022/10/04 07:52:14;;;;;;;;;;;;;;;19.05;52.90;102039.72;5005587;28;19909;-56
2022/10/04 07:54:55;;;;;;;;;;;;;;;19.07;52.71;102043.97;5024024;28;19920;-57
2022/10/04 07:57:21;;;;;;;;;;;;;;;19.09;53.06;102046.53;5024092;28;19973;-57
2022/10/04 08:00:04;;;;;;;;;;;;;;;19.09;52.97;102046.53;5024219;28;19917;-57
2022/10/04 08:02:48;;;;;;;;;;;;;;;19.11;52.87;102044.53;5024070;28;19940;-58
2022/10/04 08:05:13;;;;;;;;;;;;;;;19.09;52.93;102043.84;5023535;28;19917;-58
2022/10/04 08:07:58;;;;;;;;;;;;;;;19.08;52.79;102031.38;5024196;28;19909;-58
2022/10/04 08:10:36;;;;;;;;;;;;;;;19.08;52.77;102029.53;5022779;28;19920;-57
2022/10/04 08:13:01;;;;;;;;;;;;;;;19.09;52.83;102035.75;5024119;28;19968;-56
2022/10/04 08:15:39;;;;;;;;;;;;;;;19.10;52.88;102034.75;5023900;28;19917;-57
2022/10/04 08:18:11;;;;;;;;;;;;;;;19.11;52.72;102034.59;5023847;28;19909;-59
2022/10/04 08:20:55;;;;;;;;;;;;;;;19.12;52.62;102033.63;5023124;28;19909;-59
2022/10/04 08:23:26;;;;;;;;;;;;;;;19.14;52.55;102034.31;5023479;28;19931;-59
2022/10/04 08:25:51;;;;;;;;;;;;;;;19.13;52.59;102040.72;5016074;28;19921;-58
2022/10/04 08:31:23;;;;;;;;;;;;;;;19.19;52.62;102041.97;4952117;29;20010;-59
2022/10/04 08:34:03;;;;;;;;;;;;;;;19.25;52.60;102048.66;4963242;29;20439;-59
2022/10/04 08:36:43;;;;;;;;;;;;;;;19.30;52.63;102038.28;4962429;29;19914;-58
2022/10/04 08:39:30;;;;;;;;;;;;;;;19.38;52.15;102038.44;4963041;29;19919;-59
2022/10/04 08:41:55;;;;;;;;;;;;;;;19.46;51.92;102043.97;4941157;29;19914;-59
2022/10/04 08:44:33;;;;;;;;;;;;;;;19.53;51.62;102034.25;4962936;29;19938;-59
2022/10/04 08:47:16;;;;;;;;;;;;;;;19.60;51.38;102029.16;4937737;29;19935;-59
2022/10/04 08:49:55;;;;;;;;;;;;;;;19.65;51.28;102024.19;4924411;29;19938;-59
2022/10/04 08:52:20;;;;;;;;;;;;;;;19.71;51.14;102023.63;4927772;29;19977;-59
2022/10/04 08:54:55;;;;;;;;;;;;;;;19.73;51.02;102014.38;4945650;29;19935;-59
2022/10/04 08:57:39;;;;;;;;;;;;;;;19.77;50.95;102027.56;4947121;29;19965;-59
2022/10/04 09:00:04;;;;;;;;;;;;;;;19.81;50.69;102023.59;4947302;29;19918;-59
2022/10/04 09:02:48;;;;;;;;;;;;;;;19.85;50.51;102027.69;4944733;29;19910;-59
2022/10/04 09:05:25;;;;;;;;;;;;;;;19.87;50.23;102025.69;4946588;29;19953;-59
2022/10/04 09:07:58;;;;;;;;;;;;;;;19.89;50.64;102016.44;5001227;28;19914;-60
2022/10/04 09:10:27;;;;;;;;;;;;;;;19.90;50.17;102031.63;4990368;28;19995;-59
2022/10/04 09:12:56;;;;;;;;;;;;;;;19.88;50.40;102020.16;5007719;28;19981;-59
2022/10/04 09:15:33;;;;;;;;;;;;;;;19.88;50.27;102028.25;5007683;28;20004;-59
2022/10/04 09:18:03;;;;;;;;;;;;;;;19.87;50.57;102031.06;5007831;28;19913;-58
2022/10/04 09:20:32;;;;;;;;;;;;;;;19.86;50.31;102030.22;4989224;28;19921;-57
2022/10/04 09:22:57;;;;;;;;;;;;;;;19.85;50.60;102025.84;4990204;28;19901;-58
2022/10/04 09:25:22;;;;;;;;;;;;;;;19.85;50.29;102019.59;5007487;28;19988;-59
2022/10/04 09:27:57;;;;;;;;;;;;;;;19.85;50.57;102022.28;5006930;28;19936;-59
2022/10/04 09:30:24;;;;;;;;;;;;;;;19.83;50.54;102018.88;4987568;28;19910;-59
2022/10/04 09:32:58;;;;;;;;;;;;;;;19.82;50.31;102022.59;5001150;28;19909;-57
2022/10/04 09:35:42;;;;;;;;;;;;;;;19.82;50.51;102012.63;5005553;28;19967;-55
2022/10/04 09:38:22;;;;;;;;;;;;;;;19.82;50.44;102014.47;5014877;28;19921;-54
2022/10/04 09:41:02;;;;;;;;;;;;;;;19.81;50.43;102010.94;5026318;28;19909;-58
2022/10/04 09:43:41;;;;;;;;;;;;;;;19.80;50.56;102009.25;5026860;28;20601;-54
2022/10/04 09:46:06;;;;;;;;;;;;;;;19.79;50.75;102010.22;5026693;28;19932;-57
2022/10/04 09:48:38;;;;;;;;;;;;;;;19.80;50.57;102016.50;5026580;28;19921;-58
2022/10/04 09:51:17;;;;;;;;;;;;;;;19.80;50.60;102016.50;5008541;28;19909;-57
2022/10/04 09:54:06;;;;;;;;;;;;;;;19.78;50.85;102008.53;5008833;28;19909;-58
2022/10/04 09:56:34;;;;;;;;;;;;;;;19.81;50.75;102010.09;5010193;28;19913;-57
2022/10/04 09:59:00;;;;;;;;;;;;;;;19.81;50.98;102007.41;5008506;28;19976;-59
2022/10/04 10:01:32;;;;;;;;;;;;;;;19.80;50.85;102006.53;5025749;28;19933;-58
2022/10/04 10:04:17;;;;;;;;;;;;;;;19.80;50.86;102003.84;5007587;28;19941;-56
2022/10/04 10:06:51;;;;;;;;;;;;;;;19.79;50.63;101999.44;5025452;28;19940;-57
2022/10/04 10:13:38;;;;;;;;;;;;;;;19.81;50.72;101996.59;5019310;28;19917;-59
2022/10/04 10:15:06;;;;;;;;;;;;;;;19.81;51.04;101993.91;5031208;28;20027;-59
2022/10/04 10:17:50;;;;;;;;;;;;;;;19.79;51.07;101995.88;5020781;28;19909;-57
2022/10/04 10:20:28;;;;;;;;;;;;;;;19.80;50.93;101992.22;5002903;28;20396;-58
2022/10/04 10:23:25;;;;;;;;;;;;;;;19.79;51.13;101988.63;5022212;28;20013;-59
2022/10/04 10:26:09;;;;;;;;;;;;;;;19.80;51.27;101993.06;4979178;28;20005;-59
2022/10/04 10:28:39;;;;;;;;;;;;;;;19.80;51.02;101981.41;5005349;28;20332;-59
2022/10/04 10:31:12;;;;;;;;;;;;;;;19.80;51.19;101976.88;5007689;28;19914;-59
2022/10/04 10:33:57;;;;;;;;;;;;;;;19.79;51.14;101964.34;5007128;28;19936;-58
2022/10/04 10:36:31;;;;;;;;;;;;;;;19.80;51.23;101963.38;5023926;28;19921;-59
2022/10/04 10:39:08;;;;;;;;;;;;;;;19.81;51.27;101956.13;5025909;28;19948;-58
2022/10/04 10:41:39;;;;;;;;;;;;;;;19.82;51.15;101960.50;5007613;28;19960;-58
2022/10/04 10:44:06;;;;;;;;;;;;;;;19.81;51.13;101970.47;5025313;28;19910;-59
2022/10/04 10:46:50;;;;;;;;;;;;;;;19.82;51.10;101971.31;5025229;28;19909;-59
2022/10/04 10:49:19;;;;;;;;;;;;;;;19.82;51.59;101980.25;5024753;28;19924;-58
2022/10/04 10:52:10;;;;;;;;;;;;;;;19.82;51.44;101979.41;5024370;28;19913;-58
2022/10/04 10:54:39;;;;;;;;;;;;;;;19.82;51.51;101982.09;5023601;28;19913;-57
2022/10/04 10:57:04;;;;;;;;;;;;;;;19.82;51.55;101998.28;5003992;28;19945;-59
2022/10/04 10:59:49;;;;;;;;;;;;;;;19.82;51.56;101996.44;5025013;28;19932;-56
2022/10/04 11:02:35;;;;;;;;;;;;;;;19.82;51.63;101991.03;5023323;28;19936;-57
2022/10/04 11:05:19;;;;;;;;;;;;;;;19.84;51.76;101993.63;5023748;28;19914;-59
2022/10/04 11:07:50;;;;;;;;;;;;;;;19.84;51.89;101980.97;5024858;28;19967;-58
2022/10/04 11:10:31;;;;;;;;;;;;;;;19.85;51.88;101971.00;5007864;28;19916;-59
2022/10/04 11:13:04;;;;;;;;;;;;;;;19.86;52.21;101964.63;5007014;28;19909;-56
2022/10/04 11:15:30;;;;;;;;;;;;;;;19.87;51.94;101956.34;5007342;28;20350;-58
2022/10/04 11:18:01;;;;;;;;;;;;;;;19.88;52.18;101957.19;5007382;28;19910;-59
2022/10/04 11:20:44;;;;;;;;;;;;;;;19.88;52.37;101954.50;5006596;28;19924;-54
2022/10/04 11:23:09;;;;;;;;;;;;;;;19.89;52.36;101948.97;5024425;28;19909;-56
2022/10/04 11:25:56;;;;;;;;;;;;;;;19.90;52.47;101956.06;5024779;28;19956;-58
2022/10/04 11:28:21;;;;;;;;;;;;;;;19.91;52.35;101956.91;4992275;28;19984;-58
2022/10/04 11:31:05;;;;;;;;;;;;;;;19.91;52.19;101952.34;5024231;28;19920;-59
2022/10/04 11:33:55;;;;;;;;;;;;;;;19.93;52.20;101946.81;5013294;28;19920;-59
2022/10/04 11:36:21;;;;;;;;;;;;;;;19.94;52.39;101941.28;5006972;28;19910;-59
2022/10/04 11:39:10;;;;;;;;;;;;;;;19.95;52.07;101932.16;5023549;28;19925;-59
2022/10/04 11:41:44;;;;;;;;;;;;;;;19.96;52.49;101943.81;5006784;28;20409;-59
2022/10/04 11:44:29;;;;;;;;;;;;;;;19.97;52.41;101946.38;5006994;28;20646;-58
2022/10/04 11:46:59;;;;;;;;;;;;;;;20.00;52.25;101933.56;5024306;28;19909;-58
2022/10/04 11:49:37;;;;;;;;;;;;;;;20.01;52.33;101924.44;5006957;28;19920;-58
2022/10/04 11:52:16;;;;;;;;;;;;;;;20.01;52.46;101913.66;5023525;28;19910;-59
2022/10/04 11:55:00;;;;;;;;;;;;;;;20.03;52.56;101906.28;5024784;28;19936;-56
2022/10/04 11:57:42;;;;;;;;;;;;;;;20.04;52.45;101911.50;5023668;28;20539;-59
2022/10/04 12:00:19;;;;;;;;;;;;;;;20.06;52.34;101916.78;5019165;28;19914;-58
2022/10/04 12:02:49;;;;;;;;;;;;;;;20.06;52.47;101912.22;5006643;28;19909;-59
2022/10/04 12:05:23;;;;;;;;;;;;;;;20.07;52.71;101911.22;5024356;28;19917;-59
2022/10/04 12:08:07;;;;;;;;;;;;;;;20.09;52.49;101906.53;5024041;28;19917;-58
2022/10/04 12:10:36;;;;;;;;;;;;;;;20.09;52.70;101909.22;5024188;28;19923;-58
2022/10/04 12:13:01;;;;;;;;;;;;;;;20.11;52.54;101903.66;5006388;28;19977;-58
2022/10/04 12:15:26;;;;;;;;;;;;;;;20.12;52.52;101910.75;5024227;28;19909;-59
2022/10/04 12:18:16;;;;;;;;;;;;;;;20.11;52.78;101901.81;5024118;28;19917;-58
2022/10/04 12:21:00;;;;;;;;;;;;;;;20.13;52.81;101905.19;5023870;28;19913;-59
2022/10/04 12:23:29;;;;;;;;;;;;;;;20.15;52.91;101902.38;5024099;28;19916;-58
2022/10/04 12:26:06;;;;;;;;;;;;;;;20.15;52.70;101889.72;5023398;28;19909;-58
2022/10/04 12:28:31;;;;;;;;;;;;;;;20.17;52.44;101894.94;5023868;28;19940;-58
2022/10/04 12:31:06;;;;;;;;;;;;;;;20.18;52.54;101892.09;5023465;28;20329;-59
2022/10/04 12:33:33;;;;;;;;;;;;;;;20.21;52.80;101880.13;5021746;28;20414;-58
2022/10/04 12:36:04;;;;;;;;;;;;;;;20.25;52.63;101875.28;5022823;28;19948;-58
2022/10/04 12:38:36;;;;;;;;;;;;;;;20.26;52.78;101867.00;5023251;28;19918;-58
2022/10/04 12:41:22;;;;;;;;;;;;;;;20.28;52.61;101867.72;5023392;28;19919;-57
2022/10/04 12:43:47;;;;;;;;;;;;;;;20.29;52.63;101861.31;5005576;28;19910;-58
2022/10/04 12:46:19;;;;;;;;;;;;;;;20.30;52.82;101856.75;5023149;28;20410;-58
2022/10/04 12:48:46;;;;;;;;;;;;;;;20.31;53.00;101853.06;5020703;28;19918;-58
2022/10/04 12:51:20;;;;;;;;;;;;;;;20.33;52.84;101854.59;5023197;28;19932;-59
2022/10/04 12:53:48;;;;;;;;;;;;;;;20.37;52.67;101860.53;5002744;28;19913;-59
2022/10/04 12:56:21;;;;;;;;;;;;;;;20.39;52.69;101856.69;5005814;28;19909;-59
2022/10/04 12:59:18;;;;;;;;;;;;;;;20.42;52.87;101848.25;5022429;28;19937;-59
2022/10/04 13:01:56;;;;;;;;;;;;;;;20.45;52.47;101844.41;4980137;28;20417;-59
2022/10/04 13:04:23;;;;;;;;;;;;;;;20.48;52.64;101836.03;4970421;28;19974;-58
2022/10/04 13:06:58;;;;;;;;;;;;;;;20.53;52.43;101838.25;4956521;28;19934;-56
2022/10/04 13:09:42;;;;;;;;;;;;;;;20.57;52.79;101835.09;4981564;28;19928;-59
2022/10/04 13:12:07;;;;;;;;;;;;;;;20.61;52.72;101836.47;4981613;28;19910;-59